sensor_id;sensor_type;location;lat;lon;timestamp;temperature;humidity
51908;DHT22;39320;53.214;6.556;2023-06-04T00:01:33;15.70;99.90
51908;DHT22;39320;53.214;6.556;2023-06-04T00:03:59;15.60;99.90
51908;DHT22;39320;53.214;6.556;2023-06-04T00:06:25;15.70;99.90
51908;DHT22;39320;53.214;6.556;2023-06-04T00:08:50;15.60;99.90
51908;DHT22;39320;53.214;6.556;2023-06-04T00:11:16;15.60;99.90
51908;DHT22;39320;53.214;6.556;2023-06-04T00:13:42;15.60;99.90
51908;DHT22;39320;53.214;6.556;2023-06-04T00:16:07;15.60;99.90
51908;DHT22;39320;53.214;6.556;2023-06-04T00:18:33;15.60;99.90
51908;DHT22;39320;53.214;6.556;2023-06-04T00:20:59;15.60;99.90
51908;DHT22;39320;53.214;6.556;2023-06-04T00:23:25;15.60;99.90
51908;DHT22;39320;53.214;6.556;2023-06-04T00:25:50;15.60;99.90
51908;DHT22;39320;53.214;6.556;2023-06-04T00:28:16;15.60;99.90
51908;DHT22;39320;53.214;6.556;2023-06-04T00:30:42;15.50;99.90
51908;DHT22;39320;53.214;6.556;2023-06-04T00:33:07;15.50;99.90
51908;DHT22;39320;53.214;6.556;2023-06-04T00:35:33;15.50;99.90
51908;DHT22;39320;53.214;6.556;2023-06-04T00:37:59;15.50;99.90
51908;DHT22;39320;53.214;6.556;2023-06-04T00:40:25;15.50;99.90
51908;DHT22;39320;53.214;6.556;2023-06-04T00:42:50;15.40;99.90
51908;DHT22;39320;53.214;6.556;2023-06-04T00:45:16;15.40;99.90
51908;DHT22;39320;53.214;6.556;2023-06-04T00:47:44;15.50;99.90
51908;DHT22;39320;53.214;6.556;2023-06-04T00:50:11;15.60;99.90
51908;DHT22;39320;53.214;6.556;2023-06-04T00:52:37;15.40;99.90
51908;DHT22;39320;53.214;6.556;2023-06-04T00:55:03;15.40;99.90
51908;DHT22;39320;53.214;6.556;2023-06-04T00:57:29;15.30;99.90
51908;DHT22;39320;53.214;6.556;2023-06-04T00:59:55;15.30;99.90
51908;DHT22;39320;53.214;6.556;2023-06-04T01:02:23;15.30;99.90
51908;DHT22;39320;53.214;6.556;2023-06-04T01:07:52;15.20;99.90
51908;DHT22;39320;53.214;6.556;2023-06-04T01:10:18;15.10;99.90
51908;DHT22;39320;53.214;6.556;2023-06-04T01:12:44;15.10;99.90
51908;DHT22;39320;53.214;6.556;2023-06-04T01:15:11;15.10;99.90
51908;DHT22;39320;53.214;6.556;2023-06-04T01:17:40;15.10;99.90
51908;DHT22;39320;53.214;6.556;2023-06-04T01:25:36;15.20;99.90
51908;DHT22;39320;53.214;6.556;2023-06-04T01:28:06;15.10;99.90
51908;DHT22;39320;53.214;6.556;2023-06-04T01:30:34;15.10;99.90
51908;DHT22;39320;53.214;6.556;2023-06-04T01:33:02;15.20;99.90
51908;DHT22;39320;53.214;6.556;2023-06-04T01:35:29;15.20;99.90
51908;DHT22;39320;53.214;6.556;2023-06-04T01:37:57;15.20;99.90
51908;DHT22;39320;53.214;6.556;2023-06-04T01:40:23;15.20;99.90
51908;DHT22;39320;53.214;6.556;2023-06-04T01:42:50;15.20;99.90
51908;DHT22;39320;53.214;6.556;2023-06-04T01:45:16;15.20;99.90
51908;DHT22;39320;53.214;6.556;2023-06-04T01:47:42;15.20;99.90
51908;DHT22;39320;53.214;6.556;2023-06-04T01:50:08;15.20;99.90
51908;DHT22;39320;53.214;6.556;2023-06-04T01:52:39;15.20;99.90
51908;DHT22;39320;53.214;6.556;2023-06-04T01:55:06;15.20;99.90
51908;DHT22;39320;53.214;6.556;2023-06-04T01:57:36;15.10;99.90
51908;DHT22;39320;53.214;6.556;2023-06-04T02:00:02;15.20;99.90
51908;DHT22;39320;53.214;6.556;2023-06-04T02:02:29;15.20;99.90
51908;DHT22;39320;53.214;6.556;2023-06-04T02:04:55;15.20;99.90
51908;DHT22;39320;53.214;6.556;2023-06-04T02:07:20;15.10;99.90
51908;DHT22;39320;53.214;6.556;2023-06-04T02:09:47;15.10;99.90
51908;DHT22;39320;53.214;6.556;2023-06-04T02:12:13;15.10;99.90
51908;DHT22;39320;53.214;6.556;2023-06-04T02:14:39;15.10;99.90
51908;DHT22;39320;53.214;6.556;2023-06-04T02:17:07;15.10;99.90
51908;DHT22;39320;53.214;6.556;2023-06-04T02:19:42;15.10;99.90
51908;DHT22;39320;53.214;6.556;2023-06-04T02:22:15;15.10;99.90
51908;DHT22;39320;53.214;6.556;2023-06-04T02:24:41;15.10;99.90
51908;DHT22;39320;53.214;6.556;2023-06-04T02:27:11;15.00;99.90
51908;DHT22;39320;53.214;6.556;2023-06-04T02:29:39;15.00;99.90
51908;DHT22;39320;53.214;6.556;2023-06-04T02:32:05;15.00;99.90
51908;DHT22;39320;53.214;6.556;2023-06-04T02:34:31;15.00;99.90
51908;DHT22;39320;53.214;6.556;2023-06-04T02:36:57;15.00;99.90
51908;DHT22;39320;53.214;6.556;2023-06-04T02:39:24;15.00;99.90
51908;DHT22;39320;53.214;6.556;2023-06-04T02:41:50;15.00;99.90
51908;DHT22;39320;53.214;6.556;2023-06-04T02:44:15;14.90;99.90
51908;DHT22;39320;53.214;6.556;2023-06-04T02:46:41;14.90;99.90
51908;DHT22;39320;53.214;6.556;2023-06-04T02:49:07;14.90;99.90
51908;DHT22;39320;53.214;6.556;2023-06-04T02:51:33;14.80;99.90
51908;DHT22;39320;53.214;6.556;2023-06-04T02:53:59;14.80;99.90
51908;DHT22;39320;53.214;6.556;2023-06-04T02:56:25;14.70;99.90
51908;DHT22;39320;53.214;6.556;2023-06-04T02:58:54;14.70;99.90
51908;DHT22;39320;53.214;6.556;2023-06-04T03:01:25;14.70;99.90
51908;DHT22;39320;53.214;6.556;2023-06-04T03:03:52;14.70;99.90
51908;DHT22;39320;53.214;6.556;2023-06-04T03:06:19;14.60;99.90
51908;DHT22;39320;53.214;6.556;2023-06-04T03:08:50;14.60;99.90
51908;DHT22;39320;53.214;6.556;2023-06-04T03:11:19;14.70;99.90
51908;DHT22;39320;53.214;6.556;2023-06-04T03:13:47;14.70;99.90
51908;DHT22;39320;53.214;6.556;2023-06-04T03:16:13;14.70;99.90
51908;DHT22;39320;53.214;6.556;2023-06-04T03:18:42;14.60;99.90
51908;DHT22;39320;53.214;6.556;2023-06-04T03:21:10;14.70;99.90
51908;DHT22;39320;53.214;6.556;2023-06-04T03:23:37;14.70;99.90
51908;DHT22;39320;53.214;6.556;2023-06-04T03:26:04;14.70;99.90
51908;DHT22;39320;53.214;6.556;2023-06-04T03:28:31;14.70;99.90
51908;DHT22;39320;53.214;6.556;2023-06-04T03:30:57;14.70;99.90
51908;DHT22;39320;53.214;6.556;2023-06-04T03:33:23;14.70;99.90
51908;DHT22;39320;53.214;6.556;2023-06-04T03:35:50;14.70;99.90
51908;DHT22;39320;53.214;6.556;2023-06-04T03:38:16;14.70;99.90
51908;DHT22;39320;53.214;6.556;2023-06-04T03:40:42;14.70;99.90
51908;DHT22;39320;53.214;6.556;2023-06-04T03:43:09;14.70;99.90
51908;DHT22;39320;53.214;6.556;2023-06-04T03:45:35;14.70;99.90
51908;DHT22;39320;53.214;6.556;2023-06-04T03:48:01;14.60;99.90
51908;DHT22;39320;53.214;6.556;2023-06-04T03:50:27;14.70;99.90
51908;DHT22;39320;53.214;6.556;2023-06-04T03:52:53;14.70;99.90
51908;DHT22;39320;53.214;6.556;2023-06-04T03:55:19;14.70;99.90
51908;DHT22;39320;53.214;6.556;2023-06-04T03:57:44;14.70;99.90
51908;DHT22;39320;53.214;6.556;2023-06-04T04:00:11;14.70;99.90
51908;DHT22;39320;53.214;6.556;2023-06-04T04:02:42;14.70;99.90
51908;DHT22;39320;53.214;6.556;2023-06-04T04:05:08;14.70;99.90
51908;DHT22;39320;53.214;6.556;2023-06-04T04:07:35;14.70;99.90
51908;DHT22;39320;53.214;6.556;2023-06-04T04:10:01;14.70;99.90
51908;DHT22;39320;53.214;6.556;2023-06-04T04:12:27;14.60;99.90
51908;DHT22;39320;53.214;6.556;2023-06-04T04:14:52;14.60;99.90
51908;DHT22;39320;53.214;6.556;2023-06-04T04:17:18;14.60;99.90
51908;DHT22;39320;53.214;6.556;2023-06-04T04:19:44;14.60;99.90
51908;DHT22;39320;53.214;6.556;2023-06-04T04:22:13;14.60;99.90
51908;DHT22;39320;53.214;6.556;2023-06-04T04:24:43;14.60;99.90
51908;DHT22;39320;53.214;6.556;2023-06-04T04:27:10;14.60;99.90
51908;DHT22;39320;53.214;6.556;2023-06-04T04:29:39;14.60;99.90
51908;DHT22;39320;53.214;6.556;2023-06-04T04:32:05;14.60;99.90
51908;DHT22;39320;53.214;6.556;2023-06-04T04:34:37;14.60;99.90
51908;DHT22;39320;53.214;6.556;2023-06-04T04:37:05;14.60;99.90
51908;DHT22;39320;53.214;6.556;2023-06-04T04:39:34;14.60;99.90
51908;DHT22;39320;53.214;6.556;2023-06-04T04:42:00;14.70;99.90
51908;DHT22;39320;53.214;6.556;2023-06-04T04:44:26;14.60;99.90
51908;DHT22;39320;53.214;6.556;2023-06-04T04:46:51;14.70;99.90
51908;DHT22;39320;53.214;6.556;2023-06-04T04:49:17;14.70;99.90
51908;DHT22;39320;53.214;6.556;2023-06-04T04:51:43;14.70;99.90
51908;DHT22;39320;53.214;6.556;2023-06-04T04:54:09;14.70;99.90
51908;DHT22;39320;53.214;6.556;2023-06-04T04:56:34;14.70;99.90
51908;DHT22;39320;53.214;6.556;2023-06-04T04:59:01;14.70;99.90
51908;DHT22;39320;53.214;6.556;2023-06-04T05:01:27;14.80;99.90
51908;DHT22;39320;53.214;6.556;2023-06-04T05:03:53;14.70;99.90
51908;DHT22;39320;53.214;6.556;2023-06-04T05:06:21;14.80;99.90
51908;DHT22;39320;53.214;6.556;2023-06-04T05:08:47;14.80;99.90
51908;DHT22;39320;53.214;6.556;2023-06-04T05:11:16;14.90;99.90
51908;DHT22;39320;53.214;6.556;2023-06-04T05:13:42;14.90;99.90
51908;DHT22;39320;53.214;6.556;2023-06-04T05:16:08;14.90;99.90
51908;DHT22;39320;53.214;6.556;2023-06-04T05:18:34;14.90;99.90
51908;DHT22;39320;53.214;6.556;2023-06-04T05:21:00;14.90;99.90
51908;DHT22;39320;53.214;6.556;2023-06-04T05:23:28;14.90;99.90
51908;DHT22;39320;53.214;6.556;2023-06-04T05:25:55;14.90;99.90
51908;DHT22;39320;53.214;6.556;2023-06-04T05:28:22;14.90;99.90
51908;DHT22;39320;53.214;6.556;2023-06-04T05:30:51;14.90;99.90
51908;DHT22;39320;53.214;6.556;2023-06-04T05:33:23;15.00;99.90
51908;DHT22;39320;53.214;6.556;2023-06-04T05:35:49;14.90;99.90
51908;DHT22;39320;53.214;6.556;2023-06-04T05:38:15;14.90;99.90
51908;DHT22;39320;53.214;6.556;2023-06-04T05:40:55;14.50;99.90
51908;DHT22;39320;53.214;6.556;2023-06-04T05:43:21;14.90;99.90
51908;DHT22;39320;53.214;6.556;2023-06-04T05:45:47;14.90;99.90
51908;DHT22;39320;53.214;6.556;2023-06-04T05:48:19;14.90;99.90
51908;DHT22;39320;53.214;6.556;2023-06-04T05:50:45;14.90;99.90
51908;DHT22;39320;53.214;6.556;2023-06-04T05:53:12;14.90;99.90
51908;DHT22;39320;53.214;6.556;2023-06-04T05:55:38;15.00;99.90
51908;DHT22;39320;53.214;6.556;2023-06-04T05:58:04;14.90;99.90
51908;DHT22;39320;53.214;6.556;2023-06-04T06:00:30;14.90;99.90
51908;DHT22;39320;53.214;6.556;2023-06-04T06:02:56;14.90;99.90
51908;DHT22;39320;53.214;6.556;2023-06-04T06:05:22;14.90;99.90
51908;DHT22;39320;53.214;6.556;2023-06-04T06:07:48;14.90;99.90
51908;DHT22;39320;53.214;6.556;2023-06-04T06:10:17;15.00;99.90
51908;DHT22;39320;53.214;6.556;2023-06-04T06:12:42;15.00;99.90
51908;DHT22;39320;53.214;6.556;2023-06-04T06:15:09;15.00;99.90
51908;DHT22;39320;53.214;6.556;2023-06-04T06:17:35;15.00;99.90
51908;DHT22;39320;53.214;6.556;2023-06-04T06:20:01;15.00;99.90
51908;DHT22;39320;53.214;6.556;2023-06-04T06:22:32;15.00;99.90
51908;DHT22;39320;53.214;6.556;2023-06-04T06:24:57;15.00;99.90
51908;DHT22;39320;53.214;6.556;2023-06-04T06:27:24;15.00;99.90
51908;DHT22;39320;53.214;6.556;2023-06-04T06:29:50;15.00;99.90
51908;DHT22;39320;53.214;6.556;2023-06-04T06:32:16;15.10;99.90
51908;DHT22;39320;53.214;6.556;2023-06-04T06:34:42;15.10;99.90
51908;DHT22;39320;53.214;6.556;2023-06-04T06:37:08;15.30;99.90
51908;DHT22;39320;53.214;6.556;2023-06-04T06:39:34;15.20;99.90
51908;DHT22;39320;53.214;6.556;2023-06-04T06:42:03;15.20;99.90
51908;DHT22;39320;53.214;6.556;2023-06-04T06:44:28;15.10;99.90
51908;DHT22;39320;53.214;6.556;2023-06-04T06:46:54;15.20;99.90
51908;DHT22;39320;53.214;6.556;2023-06-04T06:49:20;15.20;99.90
51908;DHT22;39320;53.214;6.556;2023-06-04T06:51:46;15.30;99.90
51908;DHT22;39320;53.214;6.556;2023-06-04T06:54:14;15.30;99.90
51908;DHT22;39320;53.214;6.556;2023-06-04T06:56:40;15.40;99.90
51908;DHT22;39320;53.214;6.556;2023-06-04T06:59:06;15.40;99.90
51908;DHT22;39320;53.214;6.556;2023-06-04T07:01:32;15.40;99.90
51908;DHT22;39320;53.214;6.556;2023-06-04T07:03:59;15.50;99.90
51908;DHT22;39320;53.214;6.556;2023-06-04T07:06:24;15.60;99.90
51908;DHT22;39320;53.214;6.556;2023-06-04T07:08:50;15.70;99.90
51908;DHT22;39320;53.214;6.556;2023-06-04T07:11:24;15.70;99.90
51908;DHT22;39320;53.214;6.556;2023-06-04T07:13:51;15.80;99.90
51908;DHT22;39320;53.214;6.556;2023-06-04T07:16:17;15.80;99.90
51908;DHT22;39320;53.214;6.556;2023-06-04T07:18:47;15.90;99.90
51908;DHT22;39320;53.214;6.556;2023-06-04T07:21:14;16.00;99.90
51908;DHT22;39320;53.214;6.556;2023-06-04T07:23:40;16.00;99.90
51908;DHT22;39320;53.214;6.556;2023-06-04T07:26:06;16.10;99.90
51908;DHT22;39320;53.214;6.556;2023-06-04T07:28:32;16.10;99.90
51908;DHT22;39320;53.214;6.556;2023-06-04T07:30:57;16.10;99.90
51908;DHT22;39320;53.214;6.556;2023-06-04T07:33:24;16.10;99.90
51908;DHT22;39320;53.214;6.556;2023-06-04T07:35:53;16.00;99.90
51908;DHT22;39320;53.214;6.556;2023-06-04T07:38:19;16.10;99.90
51908;DHT22;39320;53.214;6.556;2023-06-04T07:40:46;16.10;99.90
51908;DHT22;39320;53.214;6.556;2023-06-04T07:43:13;16.20;99.90
51908;DHT22;39320;53.214;6.556;2023-06-04T07:45:39;16.20;99.90
51908;DHT22;39320;53.214;6.556;2023-06-04T07:48:05;16.30;99.90
51908;DHT22;39320;53.214;6.556;2023-06-04T07:50:31;16.30;99.90
51908;DHT22;39320;53.214;6.556;2023-06-04T07:52:56;16.40;99.90
51908;DHT22;39320;53.214;6.556;2023-06-04T07:55:22;16.40;99.90
51908;DHT22;39320;53.214;6.556;2023-06-04T07:57:48;16.40;99.90
51908;DHT22;39320;53.214;6.556;2023-06-04T08:00:14;16.30;99.90
51908;DHT22;39320;53.214;6.556;2023-06-04T08:02:40;16.30;99.90
51908;DHT22;39320;53.214;6.556;2023-06-04T08:05:06;16.30;99.90
51908;DHT22;39320;53.214;6.556;2023-06-04T08:07:32;16.30;99.90
51908;DHT22;39320;53.214;6.556;2023-06-04T08:09:58;16.40;99.90
51908;DHT22;39320;53.214;6.556;2023-06-04T08:12:27;16.40;99.90
51908;DHT22;39320;53.214;6.556;2023-06-04T08:14:53;16.40;99.90
51908;DHT22;39320;53.214;6.556;2023-06-04T08:17:22;16.40;99.90
51908;DHT22;39320;53.214;6.556;2023-06-04T08:19:48;16.50;99.90
51908;DHT22;39320;53.214;6.556;2023-06-04T08:22:13;16.50;99.90
51908;DHT22;39320;53.214;6.556;2023-06-04T08:24:39;16.40;99.90
51908;DHT22;39320;53.214;6.556;2023-06-04T08:27:07;16.40;99.90
51908;DHT22;39320;53.214;6.556;2023-06-04T08:29:34;16.40;99.90
51908;DHT22;39320;53.214;6.556;2023-06-04T08:32:02;16.40;99.90
51908;DHT22;39320;53.214;6.556;2023-06-04T08:34:29;16.40;99.90
51908;DHT22;39320;53.214;6.556;2023-06-04T08:36:55;16.40;99.90
51908;DHT22;39320;53.214;6.556;2023-06-04T08:39:24;16.40;99.90
51908;DHT22;39320;53.214;6.556;2023-06-04T08:41:52;16.40;99.90
51908;DHT22;39320;53.214;6.556;2023-06-04T08:44:20;16.40;99.90
51908;DHT22;39320;53.214;6.556;2023-06-04T08:46:49;16.40;99.90
51908;DHT22;39320;53.214;6.556;2023-06-04T08:49:16;16.40;99.90
51908;DHT22;39320;53.214;6.556;2023-06-04T08:51:43;16.40;99.90
51908;DHT22;39320;53.214;6.556;2023-06-04T08:54:09;16.40;99.90
51908;DHT22;39320;53.214;6.556;2023-06-04T08:56:36;16.40;99.90
51908;DHT22;39320;53.214;6.556;2023-06-04T08:59:04;16.50;99.90
51908;DHT22;39320;53.214;6.556;2023-06-04T09:01:33;16.40;99.90
51908;DHT22;39320;53.214;6.556;2023-06-04T09:04:01;16.50;99.90
51908;DHT22;39320;53.214;6.556;2023-06-04T09:06:29;16.50;99.90
51908;DHT22;39320;53.214;6.556;2023-06-04T09:08:57;16.40;99.90
51908;DHT22;39320;53.214;6.556;2023-06-04T09:11:35;16.40;99.90
51908;DHT22;39320;53.214;6.556;2023-06-04T09:14:04;16.40;99.90
51908;DHT22;39320;53.214;6.556;2023-06-04T09:16:32;16.40;99.90
51908;DHT22;39320;53.214;6.556;2023-06-04T09:19:04;16.40;99.90
51908;DHT22;39320;53.214;6.556;2023-06-04T09:21:32;16.40;99.90
51908;DHT22;39320;53.214;6.556;2023-06-04T09:23:58;16.50;99.90
51908;DHT22;39320;53.214;6.556;2023-06-04T09:26:24;16.50;99.90
51908;DHT22;39320;53.214;6.556;2023-06-04T09:28:51;16.50;99.90
51908;DHT22;39320;53.214;6.556;2023-06-04T09:31:20;16.50;99.90
51908;DHT22;39320;53.214;6.556;2023-06-04T09:33:50;16.60;99.90
51908;DHT22;39320;53.214;6.556;2023-06-04T09:36:16;16.60;99.90
51908;DHT22;39320;53.214;6.556;2023-06-04T09:38:43;16.60;99.90
51908;DHT22;39320;53.214;6.556;2023-06-04T09:41:13;16.60;99.90
51908;DHT22;39320;53.214;6.556;2023-06-04T09:43:39;16.60;99.90
51908;DHT22;39320;53.214;6.556;2023-06-04T09:46:24;16.70;99.90
51908;DHT22;39320;53.214;6.556;2023-06-04T09:49:00;16.60;99.90
51908;DHT22;39320;53.214;6.556;2023-06-04T09:51:26;16.60;99.90
51908;DHT22;39320;53.214;6.556;2023-06-04T09:54:03;16.60;99.90
51908;DHT22;39320;53.214;6.556;2023-06-04T09:56:29;16.60;99.90
51908;DHT22;39320;53.214;6.556;2023-06-04T09:59:01;16.60;99.90
51908;DHT22;39320;53.214;6.556;2023-06-04T10:01:28;16.60;99.90
51908;DHT22;39320;53.214;6.556;2023-06-04T10:03:55;16.70;99.90
51908;DHT22;39320;53.214;6.556;2023-06-04T10:06:23;16.60;99.90
51908;DHT22;39320;53.214;6.556;2023-06-04T10:08:55;16.70;99.90
51908;DHT22;39320;53.214;6.556;2023-06-04T10:11:26;16.70;99.90
51908;DHT22;39320;53.214;6.556;2023-06-04T10:14:09;16.70;99.90
51908;DHT22;39320;53.214;6.556;2023-06-04T10:16:37;16.70;99.90
51908;DHT22;39320;53.214;6.556;2023-06-04T10:19:07;16.60;99.90
51908;DHT22;39320;53.214;6.556;2023-06-04T10:21:34;16.60;99.90
51908;DHT22;39320;53.214;6.556;2023-06-04T10:24:03;16.70;99.90
51908;DHT22;39320;53.214;6.556;2023-06-04T10:26:30;16.70;99.90
51908;DHT22;39320;53.214;6.556;2023-06-04T10:28:58;16.70;99.90
51908;DHT22;39320;53.214;6.556;2023-06-04T10:31:26;16.70;99.90
51908;DHT22;39320;53.214;6.556;2023-06-04T10:33:56;16.70;99.90
51908;DHT22;39320;53.214;6.556;2023-06-04T10:36:22;16.70;99.90
51908;DHT22;39320;53.214;6.556;2023-06-04T10:38:51;16.70;99.90
51908;DHT22;39320;53.214;6.556;2023-06-04T10:41:18;16.80;99.90
51908;DHT22;39320;53.214;6.556;2023-06-04T10:43:48;16.80;99.90
51908;DHT22;39320;53.214;6.556;2023-06-04T10:46:18;16.80;99.90
51908;DHT22;39320;53.214;6.556;2023-06-04T10:48:48;16.80;99.90
51908;DHT22;39320;53.214;6.556;2023-06-04T10:51:16;16.90;99.90
51908;DHT22;39320;53.214;6.556;2023-06-04T10:53:42;16.90;99.90
51908;DHT22;39320;53.214;6.556;2023-06-04T10:56:08;16.90;99.90
51908;DHT22;39320;53.214;6.556;2023-06-04T10:58:34;16.90;99.90
51908;DHT22;39320;53.214;6.556;2023-06-04T11:01:00;17.00;99.90
51908;DHT22;39320;53.214;6.556;2023-06-04T11:03:37;17.00;99.90
51908;DHT22;39320;53.214;6.556;2023-06-04T11:06:18;17.00;99.90
51908;DHT22;39320;53.214;6.556;2023-06-04T11:08:44;17.10;99.90
51908;DHT22;39320;53.214;6.556;2023-06-04T11:11:11;17.10;99.90
51908;DHT22;39320;53.214;6.556;2023-06-04T11:13:39;17.10;99.90
51908;DHT22;39320;53.214;6.556;2023-06-04T11:16:20;17.10;99.90
51908;DHT22;39320;53.214;6.556;2023-06-04T11:18:56;17.10;99.90
51908;DHT22;39320;53.214;6.556;2023-06-04T11:21:24;17.10;99.90
51908;DHT22;39320;53.214;6.556;2023-06-04T11:24:04;17.20;99.90
51908;DHT22;39320;53.214;6.556;2023-06-04T11:26:34;17.20;99.90
51908;DHT22;39320;53.214;6.556;2023-06-04T11:29:08;17.20;99.90
51908;DHT22;39320;53.214;6.556;2023-06-04T11:31:45;17.00;99.90
51908;DHT22;39320;53.214;6.556;2023-06-04T11:34:28;17.30;99.90
51908;DHT22;39320;53.214;6.556;2023-06-04T11:37:08;17.30;99.90
51908;DHT22;39320;53.214;6.556;2023-06-04T11:39:35;17.30;99.90
51908;DHT22;39320;53.214;6.556;2023-06-04T11:42:07;17.30;99.90
51908;DHT22;39320;53.214;6.556;2023-06-04T11:44:33;17.40;99.90
51908;DHT22;39320;53.214;6.556;2023-06-04T11:47:00;17.40;99.90
51908;DHT22;39320;53.214;6.556;2023-06-04T11:49:32;17.50;99.90
51908;DHT22;39320;53.214;6.556;2023-06-04T11:52:08;17.50;99.90
51908;DHT22;39320;53.214;6.556;2023-06-04T11:54:35;17.20;99.90
51908;DHT22;39320;53.214;6.556;2023-06-04T11:57:04;17.60;99.90
51908;DHT22;39320;53.214;6.556;2023-06-04T11:59:31;17.60;99.90
51908;DHT22;39320;53.214;6.556;2023-06-04T12:01:57;17.60;99.90
51908;DHT22;39320;53.214;6.556;2023-06-04T12:04:23;17.60;99.90
51908;DHT22;39320;53.214;6.556;2023-06-04T12:07:03;17.60;99.90
51908;DHT22;39320;53.214;6.556;2023-06-04T12:09:33;17.60;99.90
51908;DHT22;39320;53.214;6.556;2023-06-04T12:12:05;17.70;99.90
51908;DHT22;39320;53.214;6.556;2023-06-04T12:14:32;17.80;99.90
51908;DHT22;39320;53.214;6.556;2023-06-04T12:17:02;17.80;99.90
51908;DHT22;39320;53.214;6.556;2023-06-04T12:19:30;17.80;99.90
51908;DHT22;39320;53.214;6.556;2023-06-04T12:22:10;17.80;99.90
51908;DHT22;39320;53.214;6.556;2023-06-04T12:24:47;17.80;99.90
51908;DHT22;39320;53.214;6.556;2023-06-04T12:27:13;17.80;99.90
51908;DHT22;39320;53.214;6.556;2023-06-04T12:29:39;17.80;99.90
51908;DHT22;39320;53.214;6.556;2023-06-04T12:32:09;17.80;99.90
51908;DHT22;39320;53.214;6.556;2023-06-04T12:34:41;17.80;99.90
51908;DHT22;39320;53.214;6.556;2023-06-04T12:37:10;17.80;99.90
51908;DHT22;39320;53.214;6.556;2023-06-04T12:39:36;17.80;99.90
51908;DHT22;39320;53.214;6.556;2023-06-04T12:42:06;17.80;99.90
51908;DHT22;39320;53.214;6.556;2023-06-04T12:44:32;17.80;99.90
51908;DHT22;39320;53.214;6.556;2023-06-04T12:46:58;17.90;99.90
51908;DHT22;39320;53.214;6.556;2023-06-04T12:49:24;17.80;99.90
51908;DHT22;39320;53.214;6.556;2023-06-04T12:51:49;17.90;99.90
51908;DHT22;39320;53.214;6.556;2023-06-04T12:54:15;17.90;99.90
51908;DHT22;39320;53.214;6.556;2023-06-04T12:56:42;18.00;99.90
51908;DHT22;39320;53.214;6.556;2023-06-04T12:59:08;18.00;99.90
51908;DHT22;39320;53.214;6.556;2023-06-04T13:01:34;18.10;99.90
51908;DHT22;39320;53.214;6.556;2023-06-04T13:04:00;18.20;99.90
51908;DHT22;39320;53.214;6.556;2023-06-04T13:06:26;18.30;99.90
51908;DHT22;39320;53.214;6.556;2023-06-04T13:08:52;18.20;99.90
51908;DHT22;39320;53.214;6.556;2023-06-04T13:11:17;18.30;99.90
51908;DHT22;39320;53.214;6.556;2023-06-04T13:13:43;18.30;99.90
51908;DHT22;39320;53.214;6.556;2023-06-04T13:16:09;18.30;99.90
51908;DHT22;39320;53.214;6.556;2023-06-04T13:18:35;18.30;99.90
51908;DHT22;39320;53.214;6.556;2023-06-04T13:21:01;18.30;99.90
51908;DHT22;39320;53.214;6.556;2023-06-04T13:23:27;18.40;99.90
51908;DHT22;39320;53.214;6.556;2023-06-04T13:25:53;18.30;99.90
51908;DHT22;39320;53.214;6.556;2023-06-04T13:28:19;18.40;99.90
51908;DHT22;39320;53.214;6.556;2023-06-04T13:30:46;18.40;99.90
51908;DHT22;39320;53.214;6.556;2023-06-04T13:33:12;18.50;99.90
51908;DHT22;39320;53.214;6.556;2023-06-04T13:35:38;18.50;99.90
51908;DHT22;39320;53.214;6.556;2023-06-04T13:38:05;18.50;99.90
51908;DHT22;39320;53.214;6.556;2023-06-04T13:40:34;18.50;99.90
51908;DHT22;39320;53.214;6.556;2023-06-04T13:43:01;18.50;99.90
51908;DHT22;39320;53.214;6.556;2023-06-04T13:45:28;18.50;99.90
51908;DHT22;39320;53.214;6.556;2023-06-04T13:47:53;18.60;99.90
51908;DHT22;39320;53.214;6.556;2023-06-04T13:50:20;18.60;99.90
51908;DHT22;39320;53.214;6.556;2023-06-04T13:52:46;18.60;99.90
51908;DHT22;39320;53.214;6.556;2023-06-04T13:55:12;18.60;99.90
51908;DHT22;39320;53.214;6.556;2023-06-04T13:57:39;18.60;99.90
51908;DHT22;39320;53.214;6.556;2023-06-04T14:00:08;18.60;99.90
51908;DHT22;39320;53.214;6.556;2023-06-04T14:02:35;18.50;99.90
51908;DHT22;39320;53.214;6.556;2023-06-04T14:05:01;18.60;99.90
51908;DHT22;39320;53.214;6.556;2023-06-04T14:07:26;18.50;99.90
51908;DHT22;39320;53.214;6.556;2023-06-04T14:09:52;18.50;99.90
51908;DHT22;39320;53.214;6.556;2023-06-04T14:12:23;18.50;99.90
51908;DHT22;39320;53.214;6.556;2023-06-04T14:14:50;18.50;99.90
51908;DHT22;39320;53.214;6.556;2023-06-04T14:17:16;18.60;99.90
51908;DHT22;39320;53.214;6.556;2023-06-04T14:19:42;18.60;99.90
51908;DHT22;39320;53.214;6.556;2023-06-04T14:22:11;18.50;99.90
51908;DHT22;39320;53.214;6.556;2023-06-04T14:24:40;18.40;99.90
51908;DHT22;39320;53.214;6.556;2023-06-04T14:27:06;18.50;99.90
51908;DHT22;39320;53.214;6.556;2023-06-04T14:29:32;18.40;99.90
51908;DHT22;39320;53.214;6.556;2023-06-04T14:31:58;18.30;99.90
51908;DHT22;39320;53.214;6.556;2023-06-04T14:34:24;18.40;99.90
51908;DHT22;39320;53.214;6.556;2023-06-04T14:36:49;18.50;99.90
51908;DHT22;39320;53.214;6.556;2023-06-04T14:39:15;18.60;99.90
51908;DHT22;39320;53.214;6.556;2023-06-04T14:45:28;18.50;99.90
51908;DHT22;39320;53.214;6.556;2023-06-04T14:47:54;18.40;99.90
51908;DHT22;39320;53.214;6.556;2023-06-04T14:50:21;18.40;99.90
51908;DHT22;39320;53.214;6.556;2023-06-04T14:52:48;18.40;99.90
51908;DHT22;39320;53.214;6.556;2023-06-04T14:55:13;18.40;99.90
51908;DHT22;39320;53.214;6.556;2023-06-04T14:57:39;18.50;99.90
51908;DHT22;39320;53.214;6.556;2023-06-04T15:00:06;18.50;99.90
51908;DHT22;39320;53.214;6.556;2023-06-04T15:02:32;18.50;99.90
51908;DHT22;39320;53.214;6.556;2023-06-04T15:04:58;18.50;99.90
51908;DHT22;39320;53.214;6.556;2023-06-04T15:07:24;18.40;99.90
51908;DHT22;39320;53.214;6.556;2023-06-04T15:09:49;18.50;99.90
51908;DHT22;39320;53.214;6.556;2023-06-04T15:12:16;18.50;99.90
51908;DHT22;39320;53.214;6.556;2023-06-04T15:14:43;18.60;99.90
51908;DHT22;39320;53.214;6.556;2023-06-04T15:17:09;18.70;99.90
51908;DHT22;39320;53.214;6.556;2023-06-04T15:19:35;18.90;99.90
51908;DHT22;39320;53.214;6.556;2023-06-04T15:22:01;18.90;99.90
51908;DHT22;39320;53.214;6.556;2023-06-04T15:24:26;18.90;99.90
51908;DHT22;39320;53.214;6.556;2023-06-04T15:26:52;18.90;99.90
51908;DHT22;39320;53.214;6.556;2023-06-04T15:29:18;18.80;99.90
51908;DHT22;39320;53.214;6.556;2023-06-04T15:31:44;18.70;99.90
51908;DHT22;39320;53.214;6.556;2023-06-04T15:34:09;18.70;99.90
51908;DHT22;39320;53.214;6.556;2023-06-04T15:36:36;18.70;99.90
51908;DHT22;39320;53.214;6.556;2023-06-04T15:39:03;18.80;99.90
51908;DHT22;39320;53.214;6.556;2023-06-04T15:41:28;18.80;99.90
51908;DHT22;39320;53.214;6.556;2023-06-04T15:43:54;18.90;99.90